Time;durP1;ratioP1;P1;durP2;ratioP2;P2;SDS_P1;SDS_P2;PMS_P1;PMS_P2;Temp;Humidity;BMP_temperature;BMP_pressure;BME280_temperature;BME280_humidity;BME280_pressure;Samples;Min_cycle;Max_cycle;Signal;HPM_P1;HPM_P2
2021/12/18 00:00:36;;;;;;;16.23;4.05;;;;;;;;;;5076411;28;20055;-73
2021/12/18 00:03:02;;;;;;;20.80;4.10;;;;;;;;;;5079569;28;20078;-73
2021/12/18 00:05:28;;;;;;;21.05;3.42;;;;;;;;;;5080189;28;20063;-73
2021/12/18 00:07:54;;;;;;;22.75;3.97;;;;;;;;;;5080320;28;20480;-73
2021/12/18 00:10:23;;;;;;;23.10;4.32;;;;;;;;;;5076351;28;20032;-74
2021/12/18 00:12:49;;;;;;;11.07;4.65;;;;;;;;;;5071056;28;20123;-73
2021/12/18 00:15:22;;;;;;;5.40;2.33;;;;;;;;;;5070816;28;20036;-74
2021/12/18 00:17:49;;;;;;;7.03;2.33;;;;;;;;;;5070981;28;20051;-74
2021/12/18 00:20:16;;;;;;;7.18;2.55;;;;;;;;;;5070728;28;20462;-73
2021/12/18 00:22:42;;;;;;;7.57;2.95;;;;;;;;;;5070741;28;20036;-74
2021/12/18 00:25:08;;;;;;;11.55;2.95;;;;;;;;;;5070732;28;20040;-73
2021/12/18 00:27:34;;;;;;;12.50;2.83;;;;;;;;;;5070612;28;20067;-74
2021/12/18 00:30:00;;;;;;;16.17;3.60;;;;;;;;;;5070895;28;20040;-74
2021/12/18 00:32:27;;;;;;;11.30;2.65;;;;;;;;;;5070726;28;20051;-74
2021/12/18 00:34:53;;;;;;;16.70;3.13;;;;;;;;;;5070826;28;20040;-73
2021/12/18 00:37:19;;;;;;;6.38;1.95;;;;;;;;;;5070560;28;20457;-74
2021/12/18 00:39:55;;;;;;;15.45;2.70;;;;;;;;;;5070689;28;20044;-73
2021/12/18 00:45:02;;;;;;;;;;;;;;;;;;5091036;28;20396;-73
2021/12/18 00:47:28;;;;;;;5.90;1.67;;;;;;;;;;5073069;28;19916;-73
2021/12/18 00:49:54;;;;;;;4.60;2.35;;;;;;;;;;5073659;28;20040;-73
2021/12/18 00:52:20;;;;;;;5.10;2.13;;;;;;;;;;5090498;28;20121;-74
2021/12/18 00:54:46;;;;;;;3.80;1.90;;;;;;;;;;5073666;28;20040;-73
2021/12/18 00:57:12;;;;;;;4.32;2.00;;;;;;;;;;5090744;28;20047;-73
2021/12/18 00:59:38;;;;;;;5.68;2.33;;;;;;;;;;5073645;28;20044;-73
2021/12/18 01:02:04;;;;;;;7.95;2.35;;;;;;;;;;5090142;28;20087;-73
2021/12/18 01:04:30;;;;;;;4.00;1.58;;;;;;;;;;5073525;28;20032;-74
2021/12/18 01:06:56;;;;;;;2.95;1.15;;;;;;;;;;5090345;28;20089;-74
2021/12/18 01:09:34;;;;;;;2.25;0.90;;;;;;;;;;5073486;28;20050;-74
2021/12/18 01:12:00;;;;;;;3.45;1.50;;;;;;;;;;5090410;28;20051;-73
2021/12/18 01:22:47;;;;;;;4.97;1.48;;;;;;;;;;5090157;28;20473;-72
2021/12/18 01:25:14;;;;;;;4.95;1.80;;;;;;;;;;5073510;28;20507;-73
2021/12/18 01:27:40;;;;;;;2.50;1.20;;;;;;;;;;5090435;28;20044;-73
2021/12/18 01:30:07;;;;;;;9.32;1.95;;;;;;;;;;5073325;28;20441;-73
2021/12/18 01:32:33;;;;;;;3.22;1.33;;;;;;;;;;5090375;28;20055;-73
2021/12/18 01:35:01;;;;;;;6.45;1.50;;;;;;;;;;5090394;28;20502;-73
2021/12/18 01:37:27;;;;;;;3.42;1.55;;;;;;;;;;5073278;28;20040;-74
2021/12/18 01:39:53;;;;;;;11.05;1.85;;;;;;;;;;5073416;28;20040;-73
2021/12/18 01:45:10;;;;;;;4.63;1.35;;;;;;;;;;5090128;28;20051;-73
2021/12/18 01:53:07;;;;;;;4.25;1.40;;;;;;;;;;5089852;28;20500;-74
2021/12/18 01:55:35;;;;;;;3.85;1.50;;;;;;;;;;5089928;28;20048;-74
2021/12/18 01:58:01;;;;;;;6.70;2.20;;;;;;;;;;5090235;28;20047;-73
2021/12/18 02:00:28;;;;;;;5.53;1.55;;;;;;;;;;5091728;28;20120;-73
2021/12/18 02:02:54;;;;;;;5.78;1.50;;;;;;;;;;5076594;28;20040;-74
2021/12/18 02:05:21;;;;;;;6.38;1.70;;;;;;;;;;5076936;28;20113;-73
2021/12/18 02:07:47;;;;;;;8.35;1.60;;;;;;;;;;5094008;28;20085;-73
2021/12/18 02:10:23;;;;;;;3.88;1.45;;;;;;;;;;5076644;28;20152;-73
2021/12/18 02:12:58;;;;;;;3.13;1.20;;;;;;;;;;5093789;28;20044;-74
2021/12/18 02:20:58;;;;;;;5.20;1.77;;;;;;;;;;5093714;28;20484;-73
2021/12/18 02:23:24;;;;;;;7.45;1.67;;;;;;;;;;5093348;28;20083;-74
2021/12/18 02:25:51;;;;;;;4.10;1.83;;;;;;;;;;5093530;28;20491;-73
2021/12/18 02:28:21;;;;;;;3.90;1.67;;;;;;;;;;5093495;28;20040;-74
2021/12/18 02:30:48;;;;;;;5.15;1.63;;;;;;;;;;5093197;28;20043;-74
2021/12/18 02:33:15;;;;;;;4.70;1.70;;;;;;;;;;5093408;28;20036;-74
2021/12/18 02:35:48;;;;;;;4.43;1.33;;;;;;;;;;5076136;28;20036;-73
2021/12/18 02:38:19;;;;;;;4.53;1.52;;;;;;;;;;5076149;28;20123;-73
2021/12/18 02:43:28;;;;;;;5.00;1.92;;;;;;;;;;5092762;28;20043;-74
2021/12/18 02:45:59;;;;;;;4.32;1.60;;;;;;;;;;5092829;28;20036;-73
2021/12/18 02:48:25;;;;;;;3.15;1.27;;;;;;;;;;5092510;28;20040;-73
2021/12/18 02:50:51;;;;;;;4.78;1.33;;;;;;;;;;5092838;28;20047;-73
2021/12/18 02:53:17;;;;;;;5.65;1.55;;;;;;;;;;5092933;28;20125;-73
2021/12/18 02:55:43;;;;;;;3.90;1.10;;;;;;;;;;5075750;28;20051;-74
2021/12/18 02:58:09;;;;;;;3.33;1.30;;;;;;;;;;5092832;28;20040;-73
2021/12/18 03:00:35;;;;;;;4.13;1.20;;;;;;;;;;5075629;28;20525;-73
2021/12/18 03:03:09;;;;;;;3.55;0.93;;;;;;;;;;5092587;28;20083;-73
2021/12/18 03:05:42;;;;;;;2.85;0.95;;;;;;;;;;5075847;28;20400;-74
2021/12/18 03:08:15;;;;;;;5.10;1.15;;;;;;;;;;5092682;28;20119;-73
2021/12/18 03:19:15;;;;;;;2.90;1.42;;;;;;;;;;5092330;28;20044;-74
2021/12/18 03:22:37;;;;;;;4.28;1.33;;;;;;;;;;5075423;28;20119;-73
2021/12/18 03:25:09;;;;;;;4.55;1.33;;;;;;;;;;5092266;28;20043;-73
2021/12/18 03:27:29;;;;;;;4.43;1.02;;;;;;;;;;5091794;28;20059;-73
2021/12/18 03:29:56;;;;;;;4.78;1.15;;;;;;;;;;5092387;28;20309;-73
2021/12/18 03:32:22;;;;;;;4.82;1.35;;;;;;;;;;5092216;28;20476;-73
2021/12/18 03:34:48;;;;;;;3.60;1.02;;;;;;;;;;5091867;28;20112;-73
2021/12/18 03:37:14;;;;;;;5.32;1.25;;;;;;;;;;5075298;28;20043;-73
2021/12/18 03:39:41;;;;;;;3.55;1.38;;;;;;;;;;5091856;28;20089;-73
2021/12/18 03:42:08;;;;;;;3.85;1.35;;;;;;;;;;5072453;28;20040;-73
2021/12/18 03:44:34;;;;;;;3.13;1.23;;;;;;;;;;5074413;28;20055;-73
2021/12/18 03:47:01;;;;;;;7.70;1.15;;;;;;;;;;5074414;28;20036;-73
2021/12/18 03:49:27;;;;;;;5.25;1.40;;;;;;;;;;5074448;28;20040;-73
2021/12/18 03:51:53;;;;;;;2.97;1.08;;;;;;;;;;5074560;28;20043;-73
2021/12/18 03:54:19;;;;;;;3.53;1.15;;;;;;;;;;5074371;28;20036;-74
2021/12/18 03:56:45;;;;;;;2.05;0.85;;;;;;;;;;5074426;28;20040;-74
2021/12/18 03:59:11;;;;;;;2.60;1.15;;;;;;;;;;5091228;28;20047;-73
2021/12/18 04:01:37;;;;;;;4.35;1.33;;;;;;;;;;5073927;28;20575;-74
2021/12/18 04:04:03;;;;;;;4.22;1.63;;;;;;;;;;5091386;28;20036;-73
2021/12/18 04:06:31;;;;;;;5.10;1.70;;;;;;;;;;5091008;28;20039;-73
2021/12/18 04:08:57;;;;;;;3.45;1.35;;;;;;;;;;5074079;28;20032;-73
2021/12/18 04:11:23;;;;;;;5.97;1.33;;;;;;;;;;5091067;28;20085;-73
2021/12/18 04:13:49;;;;;;;3.95;1.55;;;;;;;;;;5091178;28;20039;-73
2021/12/18 04:16:15;;;;;;;5.30;1.60;;;;;;;;;;5074034;28;20067;-74
2021/12/18 04:18:41;;;;;;;9.50;1.75;;;;;;;;;;5090778;28;20047;-74
2021/12/18 04:21:08;;;;;;;3.67;1.33;;;;;;;;;;5090878;28;20044;-73
2021/12/18 04:23:35;;;;;;;3.88;1.42;;;;;;;;;;5073347;28;20044;-74
2021/12/18 04:26:01;;;;;;;4.53;1.52;;;;;;;;;;5074077;28;20040;-74
2021/12/18 04:28:27;;;;;;;4.75;1.58;;;;;;;;;;5090589;28;20044;-74
2021/12/18 04:30:54;;;;;;;6.22;1.40;;;;;;;;;;5090470;28;20482;-73
2021/12/18 04:33:20;;;;;;;4.90;1.38;;;;;;;;;;5073624;28;20122;-73
2021/12/18 04:35:46;;;;;;;4.20;1.23;;;;;;;;;;5090762;28;20040;-73
2021/12/18 04:38:12;;;;;;;3.05;1.30;;;;;;;;;;5073771;28;20051;-73
2021/12/18 04:40:40;;;;;;;2.85;0.95;;;;;;;;;;5073562;28;20078;-73
2021/12/18 04:43:06;;;;;;;2.80;0.82;;;;;;;;;;5090389;28;20416;-73
2021/12/18 04:45:32;;;;;;;3.22;0.82;;;;;;;;;;5090426;28;20036;-73
2021/12/18 04:47:58;;;;;;;2.65;0.95;;;;;;;;;;5090272;28;20389;-74
2021/12/18 04:50:24;;;;;;;3.55;1.58;;;;;;;;;;5090096;28;20066;-74
2021/12/18 04:52:50;;;;;;;4.68;1.42;;;;;;;;;;5090222;28;20047;-74
2021/12/18 04:55:16;;;;;;;3.58;1.50;;;;;;;;;;5090532;28;20047;-74
2021/12/18 04:57:42;;;;;;;2.30;1.20;;;;;;;;;;5073313;28;20043;-74
2021/12/18 05:00:10;;;;;;;3.40;1.45;;;;;;;;;;5090021;28;20097;-74
2021/12/18 05:02:40;;;;;;;8.38;1.50;;;;;;;;;;5073164;28;20486;-74
2021/12/18 05:05:07;;;;;;;5.93;1.95;;;;;;;;;;5090054;28;20044;-73
2021/12/18 05:07:33;;;;;;;4.55;1.42;;;;;;;;;;5090008;28;20067;-73
2021/12/18 05:09:59;;;;;;;4.57;1.45;;;;;;;;;;5090179;28;20036;-74
2021/12/18 05:12:25;;;;;;;4.28;2.00;;;;;;;;;;5089919;28;20188;-74
2021/12/18 05:14:51;;;;;;;4.30;1.80;;;;;;;;;;5073497;28;20050;-74
2021/12/18 05:17:17;;;;;;;4.82;1.85;;;;;;;;;;5090273;28;20395;-74
2021/12/18 05:19:43;;;;;;;5.28;1.10;;;;;;;;;;5090043;28;20048;-74
2021/12/18 05:22:09;;;;;;;3.70;1.35;;;;;;;;;;5089867;28;20044;-74
2021/12/18 05:24:35;;;;;;;3.55;1.20;;;;;;;;;;5089872;28;20032;-73
2021/12/18 05:27:02;;;;;;;3.05;0.85;;;;;;;;;;5072975;28;20050;-74
2021/12/18 05:29:28;;;;;;;4.28;2.38;;;;;;;;;;5073151;28;20131;-73
2021/12/18 05:31:54;;;;;;;4.22;1.60;;;;;;;;;;5072841;28;20056;-74
2021/12/18 05:34:25;;;;;;;4.70;1.70;;;;;;;;;;5075331;28;20079;-74
2021/12/18 05:39:21;;;;;;;3.38;1.25;;;;;;;;;;5094202;28;20040;-73
2021/12/18 05:41:50;;;;;;;5.40;1.27;;;;;;;;;;5076649;28;20520;-74
2021/12/18 05:44:17;;;;;;;3.90;1.25;;;;;;;;;;5077480;28;20080;-74
2021/12/18 05:46:43;;;;;;;5.07;1.10;;;;;;;;;;5076885;28;20126;-74
2021/12/18 05:49:09;;;;;;;4.40;1.42;;;;;;;;;;5076942;28;20539;-73
2021/12/18 05:51:36;;;;;;;3.72;1.13;;;;;;;;;;5077059;28;20066;-74
2021/12/18 05:54:02;;;;;;;3.55;0.93;;;;;;;;;;5077310;28;20541;-74
2021/12/18 05:56:28;;;;;;;2.25;0.90;;;;;;;;;;5094084;28;20482;-73
2021/12/18 05:58:54;;;;;;;4.00;1.35;;;;;;;;;;5076877;28;20036;-73
2021/12/18 06:01:20;;;;;;;2.88;1.08;;;;;;;;;;5093555;28;20063;-74
2021/12/18 06:03:47;;;;;;;2.33;0.75;;;;;;;;;;5076987;28;20040;-74
2021/12/18 06:06:13;;;;;;;2.95;1.02;;;;;;;;;;5076694;28;20376;-73
2021/12/18 06:08:39;;;;;;;2.35;1.17;;;;;;;;;;5076562;28;20044;-73
2021/12/18 06:11:11;;;;;;;5.82;1.30;;;;;;;;;;5075380;28;20080;-74
2021/12/18 06:13:37;;;;;;;4.20;1.20;;;;;;;;;;5076464;28;20173;-74
2021/12/18 06:16:07;;;;;;;3.60;1.55;;;;;;;;;;5093656;28;20135;-74
2021/12/18 06:18:36;;;;;;;7.25;1.50;;;;;;;;;;5093242;28;20036;-74
2021/12/18 06:21:03;;;;;;;4.45;1.83;;;;;;;;;;5093222;28;20039;-74
2021/12/18 06:23:29;;;;;;;5.13;2.20;;;;;;;;;;5093375;28;20044;-73
2021/12/18 06:25:56;;;;;;;4.00;1.67;;;;;;;;;;5093619;28;20036;-73
2021/12/18 06:28:22;;;;;;;7.07;1.40;;;;;;;;;;5076438;28;20039;-73
2021/12/18 06:30:49;;;;;;;4.78;1.98;;;;;;;;;;5093175;28;20036;-73
2021/12/18 06:33:15;;;;;;;2.88;1.35;;;;;;;;;;5093181;28;20484;-73
2021/12/18 06:35:41;;;;;;;4.43;1.60;;;;;;;;;;5093183;28;20036;-74
2021/12/18 06:38:07;;;;;;;5.63;2.28;;;;;;;;;;5093324;28;21049;-74
2021/12/18 06:40:33;;;;;;;4.07;1.73;;;;;;;;;;5076331;28;20082;-73
2021/12/18 06:42:59;;;;;;;4.78;1.90;;;;;;;;;;5091513;28;20079;-73
2021/12/18 06:45:26;;;;;;;5.50;2.30;;;;;;;;;;5091908;28;20072;-74
2021/12/18 06:47:52;;;;;;;4.93;1.75;;;;;;;;;;5075648;28;20396;-74
2021/12/18 06:50:18;;;;;;;4.68;1.70;;;;;;;;;;5075910;28;20046;-76
2021/12/18 06:52:44;;;;;;;3.95;2.25;;;;;;;;;;5092838;28;20459;-75
2021/12/18 06:55:11;;;;;;;6.25;2.03;;;;;;;;;;5075947;28;20084;-73
2021/12/18 06:57:37;;;;;;;5.53;1.77;;;;;;;;;;5075694;28;20047;-74
2021/12/18 07:00:05;;;;;;;6.15;2.03;;;;;;;;;;5092663;28;20405;-73
2021/12/18 07:02:31;;;;;;;5.60;1.75;;;;;;;;;;5075544;28;20153;-73
2021/12/18 07:04:56;;;;;;;7.03;2.13;;;;;;;;;;5092283;28;20075;-73
2021/12/18 07:07:22;;;;;;;7.68;2.72;;;;;;;;;;5075512;28;20043;-73
2021/12/18 07:09:48;;;;;;;6.15;2.22;;;;;;;;;;5092437;28;20032;-74
2021/12/18 07:12:14;;;;;;;4.22;1.80;;;;;;;;;;5075553;28;20047;-73
2021/12/18 07:14:41;;;;;;;4.05;1.67;;;;;;;;;;5092308;28;20089;-74
2021/12/18 07:17:07;;;;;;;5.72;2.03;;;;;;;;;;5092732;28;20044;-73
2021/12/18 07:19:33;;;;;;;5.65;2.20;;;;;;;;;;5092297;28;20055;-74
2021/12/18 07:21:59;;;;;;;5.50;2.20;;;;;;;;;;5075314;28;20036;-73
2021/12/18 07:24:25;;;;;;;4.00;1.80;;;;;;;;;;5075335;28;20079;-73
2021/12/18 07:26:51;;;;;;;7.72;1.95;;;;;;;;;;5075176;28;20392;-73
2021/12/18 07:29:17;;;;;;;5.95;1.83;;;;;;;;;;5075506;28;20434;-73
2021/12/18 07:31:43;;;;;;;9.07;2.28;;;;;;;;;;5075172;28;20101;-73
2021/12/18 07:34:09;;;;;;;9.13;2.70;;;;;;;;;;5091917;28;20071;-74
2021/12/18 07:36:35;;;;;;;7.82;2.20;;;;;;;;;;5075489;28;20083;-73
2021/12/18 07:39:01;;;;;;;8.55;2.72;;;;;;;;;;5074887;28;20089;-73
2021/12/18 07:41:27;;;;;;;6.57;2.15;;;;;;;;;;5090092;28;20036;-73
2021/12/18 07:43:53;;;;;;;7.80;2.78;;;;;;;;;;5091199;28;20067;-73
2021/12/18 07:46:19;;;;;;;8.23;2.55;;;;;;;;;;5074513;28;20484;-73
2021/12/18 07:48:45;;;;;;;5.53;2.83;;;;;;;;;;5091332;28;20047;-73
2021/12/18 07:51:12;;;;;;;7.28;3.10;;;;;;;;;;5091525;28;20036;-73
2021/12/18 07:53:38;;;;;;;6.35;3.15;;;;;;;;;;5074818;28;20173;-74
2021/12/18 07:56:04;;;;;;;9.23;3.00;;;;;;;;;;5091947;28;20108;-73
2021/12/18 07:58:31;;;;;;;1.98;1.08;;;;;;;;;;5074538;28;20036;-74
2021/12/18 08:00:57;;;;;;;10.23;3.58;;;;;;;;;;5091148;28;20048;-73
2021/12/18 08:03:23;;;;;;;8.20;3.65;;;;;;;;;;5074480;28;20131;-73
2021/12/18 08:05:49;;;;;;;10.80;3.85;;;;;;;;;;5074517;28;20170;-73
2021/12/18 08:08:15;;;;;;;9.13;3.15;;;;;;;;;;5074629;28;20051;-74
2021/12/18 08:10:41;;;;;;;9.00;3.55;;;;;;;;;;5074496;28;20040;-73
2021/12/18 08:13:07;;;;;;;12.52;2.78;;;;;;;;;;5101793;28;20150;-75
2021/12/18 08:15:33;;;;;;;8.02;2.22;;;;;;;;;;5093798;28;20142;-73
2021/12/18 08:18:04;;;;;;;11.18;3.53;;;;;;;;;;5093387;28;20097;-73
2021/12/18 08:20:30;;;;;;;9.00;3.08;;;;;;;;;;5092119;28;20144;-74
2021/12/18 08:22:56;;;;;;;9.15;2.80;;;;;;;;;;5082162;28;20071;-74
2021/12/18 08:25:22;;;;;;;11.07;2.78;;;;;;;;;;5075582;28;20104;-73
2021/12/18 08:27:48;;;;;;;12.70;3.83;;;;;;;;;;5078044;28;20038;-74
2021/12/18 08:30:14;;;;;;;7.93;3.47;;;;;;;;;;5076690;28;20032;-74
2021/12/18 08:32:40;;;;;;;6.32;4.28;;;;;;;;;;5079108;28;20036;-74
2021/12/18 08:35:07;;;;;;;9.40;2.78;;;;;;;;;;5079133;28;20041;-73
2021/12/18 08:37:33;;;;;;;10.32;3.40;;;;;;;;;;5079020;28;20039;-73
2021/12/18 08:39:59;;;;;;;6.22;2.63;;;;;;;;;;5079767;28;20092;-73
2021/12/18 08:42:25;;;;;;;7.45;3.00;;;;;;;;;;5078525;28;20040;-74
2021/12/18 08:44:51;;;;;;;8.75;2.97;;;;;;;;;;5078782;28;20365;-75
2021/12/18 08:47:18;;;;;;;6.18;2.60;;;;;;;;;;5079146;28;20108;-74
2021/12/18 08:49:44;;;;;;;8.27;2.97;;;;;;;;;;5078836;28;20044;-73
2021/12/18 08:52:10;;;;;;;10.25;2.65;;;;;;;;;;5078902;28;20513;-74
2021/12/18 08:54:36;;;;;;;11.73;3.00;;;;;;;;;;5079267;28;20042;-73
2021/12/18 08:57:02;;;;;;;6.75;2.70;;;;;;;;;;5079429;28;20388;-75
2021/12/18 08:59:28;;;;;;;3.10;0.82;;;;;;;;;;5073276;28;20051;-74
2021/12/18 09:01:54;;;;;;;6.60;2.97;;;;;;;;;;5070829;28;20478;-74
2021/12/18 09:04:20;;;;;;;4.53;1.77;;;;;;;;;;5071205;28;20040;-75
2021/12/18 09:06:46;;;;;;;3.13;1.80;;;;;;;;;;5074683;28;20467;-74
2021/12/18 09:09:12;;;;;;;0.95;0.88;;;;;;;;;;5075513;28;20040;-75
2021/12/18 09:11:38;;;;;;;1.10;1.00;;;;;;;;;;5079290;28;20415;-74
2021/12/18 09:14:04;;;;;;;2.90;1.38;;;;;;;;;;5074831;28;20093;-74
2021/12/18 09:16:32;;;;;;;4.63;0.95;;;;;;;;;;5077163;28;20074;-73
2021/12/18 09:18:58;;;;;;;2.13;1.00;;;;;;;;;;5069474;28;20622;-73
2021/12/18 09:21:24;;;;;;;5.45;1.40;;;;;;;;;;5066778;28;20072;-74
2021/12/18 09:23:50;;;;;;;3.13;1.17;;;;;;;;;;5072341;28;20047;-73
2021/12/18 09:26:16;;;;;;;2.13;0.73;;;;;;;;;;5085771;28;20029;-73
2021/12/18 09:28:42;;;;;;;2.65;1.40;;;;;;;;;;5086582;28;20070;-74
2021/12/18 09:31:08;;;;;;;5.75;1.58;;;;;;;;;;5086507;28;20048;-74
2021/12/18 09:33:34;;;;;;;7.05;1.95;;;;;;;;;;5069462;28;20071;-74
2021/12/18 09:36:00;;;;;;;7.70;1.85;;;;;;;;;;5086834;28;20028;-73
2021/12/18 09:38:26;;;;;;;9.02;2.08;;;;;;;;;;5069400;28;20067;-73
2021/12/18 09:40:52;;;;;;;4.70;0.88;;;;;;;;;;5069478;28;20032;-74
2021/12/18 09:43:18;;;;;;;3.95;1.45;;;;;;;;;;5086045;28;20087;-73
2021/12/18 09:45:46;;;;;;;5.07;1.95;;;;;;;;;;5086093;28;20048;-74
2021/12/18 09:48:12;;;;;;;6.10;1.08;;;;;;;;;;5069346;28;20459;-74
2021/12/18 09:50:41;;;;;;;9.95;2.53;;;;;;;;;;5069214;28;20165;-74
2021/12/18 09:53:07;;;;;;;2.90;1.15;;;;;;;;;;5069669;28;20081;-73
2021/12/18 09:55:33;;;;;;;5.28;1.50;;;;;;;;;;5085969;28;20461;-73
2021/12/18 09:57:59;;;;;;;8.55;1.85;;;;;;;;;;5086224;28;20571;-74
2021/12/18 10:00:25;;;;;;;4.68;1.45;;;;;;;;;;5087016;28;20155;-75
2021/12/18 10:02:52;;;;;;;7.65;1.67;;;;;;;;;;5070004;28;20108;-75
2021/12/18 10:05:23;;;;;;;4.47;1.33;;;;;;;;;;5087393;28;20127;-75
2021/12/18 10:07:49;;;;;;;;;;;;;;;;;;5087208;28;20484;-74
2021/12/18 10:10:15;;;;;;;5.18;1.60;;;;;;;;;;5069005;28;19965;-74
2021/12/18 10:12:40;;;;;;;5.20;1.08;;;;;;;;;;5085692;28;20395;-75
2021/12/18 10:15:14;;;;;;;3.13;1.05;;;;;;;;;;5086351;28;20051;-74
2021/12/18 10:17:42;;;;;;;7.30;1.80;;;;;;;;;;5085925;28;20048;-74
2021/12/18 10:20:11;;;;;;;4.88;2.40;;;;;;;;;;5069129;28;20048;-73
2021/12/18 10:22:44;;;;;;;4.25;1.80;;;;;;;;;;5089267;28;20109;-74
2021/12/18 10:25:10;;;;;;;3.75;1.42;;;;;;;;;;5072772;28;20040;-75
2021/12/18 10:27:37;;;;;;;9.65;2.08;;;;;;;;;;5072792;28;20043;-74
2021/12/18 10:30:09;;;;;;;7.05;1.67;;;;;;;;;;5089460;28;20412;-74
2021/12/18 10:32:35;;;;;;;5.93;2.22;;;;;;;;;;5089088;28;20048;-74
2021/12/18 10:35:01;;;;;;;5.05;1.77;;;;;;;;;;5089271;28;20058;-73
2021/12/18 10:37:28;;;;;;;7.15;2.05;;;;;;;;;;5072260;28;20587;-73
2021/12/18 10:39:54;;;;;;;5.53;1.80;;;;;;;;;;5073951;28;20051;-73
2021/12/18 10:42:29;;;;;;;5.70;1.98;;;;;;;;;;5072852;28;20047;-73
2021/12/18 10:45:04;;;;;;;5.95;1.98;;;;;;;;;;5073053;28;20040;-72
2021/12/18 10:47:49;;;;;;;22.63;4.00;;;;;;;;;;5089822;28;20039;-72
2021/12/18 10:50:34;;;;;;;52.25;7.18;;;;;;;;;;5072662;28;20082;-72
2021/12/18 10:53:03;;;;;;;52.20;7.32;;;;;;;;;;5073665;28;20079;-72
2021/12/18 10:55:31;;;;;;;31.65;6.20;;;;;;;;;;5089115;28;20039;-72
2021/12/18 10:57:57;;;;;;;61.92;8.18;;;;;;;;;;5089372;28;20036;-72
2021/12/18 11:00:32;;;;;;;103.65;11.88;;;;;;;;;;5072278;28;20075;-72
2021/12/18 11:02:58;;;;;;;50.97;5.90;;;;;;;;;;5089311;28;20044;-72
2021/12/18 11:05:24;;;;;;;32.60;4.82;;;;;;;;;;5073401;28;20134;-72
2021/12/18 11:08:07;;;;;;;31.15;6.07;;;;;;;;;;5072399;28;20126;-73
2021/12/18 11:10:42;;;;;;;13.73;3.85;;;;;;;;;;5089979;28;20044;-73
2021/12/18 11:15:53;;;;;;;12.20;2.28;;;;;;;;;;5089899;28;20598;-74
2021/12/18 11:18:19;;;;;;;44.60;8.65;;;;;;;;;;5089723;28;20051;-73
2021/12/18 11:20:50;;;;;;;22.00;5.40;;;;;;;;;;5089157;28;20036;-73
2021/12/18 11:23:16;;;;;;;57.00;8.10;;;;;;;;;;5071645;28;20048;-73
2021/12/18 11:25:42;;;;;;;32.15;5.35;;;;;;;;;;5089052;28;20036;-72
2021/12/18 11:28:09;;;;;;;44.13;5.38;;;;;;;;;;5070607;28;20076;-73
2021/12/18 11:30:36;;;;;;;18.48;4.55;;;;;;;;;;5071372;28;20036;-73
2021/12/18 11:33:01;;;;;;;43.67;6.35;;;;;;;;;;5088828;28;20098;-74
2021/12/18 11:35:28;;;;;;;22.98;3.33;;;;;;;;;;5089480;28;20075;-75
2021/12/18 11:37:55;;;;;;;6.40;2.00;;;;;;;;;;5072134;28;20040;-74
2021/12/18 11:40:30;;;;;;;12.65;3.17;;;;;;;;;;5072867;28;20055;-74
2021/12/18 11:42:56;;;;;;;23.17;4.00;;;;;;;;;;5071204;28;20044;-74
2021/12/18 11:45:30;;;;;;;16.65;4.13;;;;;;;;;;5088274;28;20414;-73
2021/12/18 11:47:58;;;;;;;10.57;3.42;;;;;;;;;;5088033;28;20040;-73
2021/12/18 11:50:29;;;;;;;9.82;3.00;;;;;;;;;;5087315;28;20745;-74
2021/12/18 11:52:58;;;;;;;10.93;3.15;;;;;;;;;;5070758;28;20513;-73
2021/12/18 11:55:26;;;;;;;7.70;1.95;;;;;;;;;;5088030;28;20052;-74
2021/12/18 11:57:53;;;;;;;13.13;2.75;;;;;;;;;;5087713;28;20094;-73
2021/12/18 12:00:21;;;;;;;7.53;2.50;;;;;;;;;;5070874;28;20048;-73
2021/12/18 12:02:52;;;;;;;9.02;2.50;;;;;;;;;;5070016;28;20142;-72
2021/12/18 12:05:20;;;;;;;10.60;2.55;;;;;;;;;;5087920;28;20127;-73
2021/12/18 12:07:46;;;;;;;6.20;2.50;;;;;;;;;;5070733;28;20407;-74
2021/12/18 12:10:45;;;;;;;5.28;2.22;;;;;;;;;;5070656;28;20112;-73
2021/12/18 12:13:05;;;;;;;40.90;7.47;;;;;;;;;;5090838;28;20047;-73
2021/12/18 12:15:31;;;;;;;37.63;7.45;;;;;;;;;;5074853;28;20472;-74
2021/12/18 12:17:59;;;;;;;9.13;2.17;;;;;;;;;;5074556;28;20040;-74
2021/12/18 12:20:40;;;;;;;21.58;2.88;;;;;;;;;;5074285;28;20044;-76
2021/12/18 12:23:06;;;;;;;13.93;2.65;;;;;;;;;;5091244;28;20646;-78
2021/12/18 12:25:43;;;;;;;5.20;1.33;;;;;;;;;;5071859;28;20044;-74
2021/12/18 12:28:12;;;;;;;7.13;1.77;;;;;;;;;;5071314;28;20127;-74
2021/12/18 12:30:43;;;;;;;8.57;2.70;;;;;;;;;;5071078;28;20062;-73
2021/12/18 12:33:13;;;;;;;7.80;2.05;;;;;;;;;;5071209;28;20084;-73
2021/12/18 12:35:57;;;;;;;11.38;2.38;;;;;;;;;;5070942;28;20043;-73
2021/12/18 12:38:24;;;;;;;9.27;2.13;;;;;;;;;;5070965;28;20183;-73
2021/12/18 12:40:50;;;;;;;3.17;1.75;;;;;;;;;;5070708;28;20056;-72
2021/12/18 12:43:26;;;;;;;7.78;2.08;;;;;;;;;;5069569;28;20052;-73
2021/12/18 12:45:55;;;;;;;7.25;2.08;;;;;;;;;;5070708;28;20093;-73
2021/12/18 12:48:21;;;;;;;6.75;2.15;;;;;;;;;;5070917;28;20400;-74
2021/12/18 12:50:58;;;;;;;5.10;2.10;;;;;;;;;;5070293;28;20040;-74
2021/12/18 12:53:43;;;;;;;4.85;1.90;;;;;;;;;;5070549;28;20051;-74
2021/12/18 12:56:14;;;;;;;8.30;2.30;;;;;;;;;;5070715;28;20047;-74
2021/12/18 12:58:40;;;;;;;7.72;2.25;;;;;;;;;;5070625;28;20094;-74
2021/12/18 13:01:06;;;;;;;7.90;2.50;;;;;;;;;;5070089;28;20052;-74
2021/12/18 13:03:45;;;;;;;4.88;1.70;;;;;;;;;;5070709;28;20051;-74
2021/12/18 13:06:15;;;;;;;4.85;2.03;;;;;;;;;;5070777;28;20040;-74
2021/12/18 13:08:43;;;;;;;3.30;1.77;;;;;;;;;;5070410;28;20135;-74
2021/12/18 13:11:12;;;;;;;6.45;1.95;;;;;;;;;;5070458;28;20043;-75
2021/12/18 13:13:38;;;;;;;6.10;1.92;;;;;;;;;;5070326;28;20040;-74
2021/12/18 13:16:10;;;;;;;5.97;2.60;;;;;;;;;;5069973;28;20102;-74
2021/12/18 13:18:38;;;;;;;7.93;2.38;;;;;;;;;;5069931;28;20037;-74
2021/12/18 13:21:04;;;;;;;5.40;2.00;;;;;;;;;;5069800;28;20052;-74
2021/12/18 13:23:38;;;;;;;9.27;2.28;;;;;;;;;;5069768;28;20040;-74
2021/12/18 13:26:04;;;;;;;4.50;2.35;;;;;;;;;;5069654;28;20590;-74
2021/12/18 13:28:30;;;;;;;10.82;2.17;;;;;;;;;;5069957;28;20048;-75
2021/12/18 13:30:57;;;;;;;6.78;2.17;;;;;;;;;;5069646;28;20139;-74
2021/12/18 13:33:24;;;;;;;7.78;2.10;;;;;;;;;;5069958;28;20044;-74
2021/12/18 13:35:55;;;;;;;4.25;1.90;;;;;;;;;;5069801;28;20115;-74
2021/12/18 13:38:21;;;;;;;8.73;2.85;;;;;;;;;;5080330;28;20373;-75
2021/12/18 13:40:48;;;;;;;4.22;1.88;;;;;;;;;;5089643;28;20042;-75
2021/12/18 13:43:18;;;;;;;7.15;2.17;;;;;;;;;;5090021;28;20391;-74
2021/12/18 13:45:52;;;;;;;8.65;3.15;;;;;;;;;;5090191;28;20051;-75
2021/12/18 13:48:19;;;;;;;7.63;2.10;;;;;;;;;;5089621;28;20458;-74
2021/12/18 13:50:52;;;;;;;4.80;2.53;;;;;;;;;;5089458;28;20040;-74
2021/12/18 13:53:17;;;;;;;7.05;2.47;;;;;;;;;;5090027;28;20047;-75
2021/12/18 13:55:51;;;;;;;6.30;2.00;;;;;;;;;;5092784;28;20043;-75
2021/12/18 13:58:17;;;;;;;7.10;2.13;;;;;;;;;;5089957;28;20124;-75
2021/12/18 14:00:52;;;;;;;10.20;2.75;;;;;;;;;;5090136;28;20138;-74
2021/12/18 14:03:19;;;;;;;4.68;2.88;;;;;;;;;;5089886;28;20400;-75
2021/12/18 14:05:45;;;;;;;6.13;2.55;;;;;;;;;;5069702;28;20043;-75
2021/12/18 14:08:12;;;;;;;8.55;2.00;;;;;;;;;;5053429;28;20396;-74
2021/12/18 14:10:38;;;;;;;3.22;1.70;;;;;;;;;;5069798;28;20048;-75
2021/12/18 14:13:05;;;;;;;6.43;2.20;;;;;;;;;;5069838;28;20407;-75
2021/12/18 14:15:31;;;;;;;9.32;2.78;;;;;;;;;;5053072;28;20076;-75
2021/12/18 14:18:00;;;;;;;5.13;2.35;;;;;;;;;;5053170;28;20150;-75
2021/12/18 14:20:26;;;;;;;7.13;2.67;;;;;;;;;;5053146;28;20067;-74
2021/12/18 14:22:53;;;;;;;6.47;2.83;;;;;;;;;;5052719;28;20047;-74
2021/12/18 14:25:20;;;;;;;7.10;2.33;;;;;;;;;;5069498;28;20122;-75
2021/12/18 14:27:50;;;;;;;8.48;2.10;;;;;;;;;;5063785;28;20073;-74
2021/12/18 14:30:22;;;;;;;7.05;2.30;;;;;;;;;;5093138;28;20441;-75
2021/12/18 14:32:49;;;;;;;2.90;1.30;;;;;;;;;;5110339;28;20601;-75
2021/12/18 14:35:15;;;;;;;5.82;1.92;;;;;;;;;;5093097;28;20070;-75
2021/12/18 14:37:48;;;;;;;11.25;2.70;;;;;;;;;;5109586;28;20039;-74
2021/12/18 14:40:18;;;;;;;7.43;2.45;;;;;;;;;;5092933;28;20043;-75
2021/12/18 14:42:54;;;;;;;6.00;2.08;;;;;;;;;;5109737;28;20346;-75
2021/12/18 14:45:31;;;;;;;7.32;1.92;;;;;;;;;;5092667;28;20040;-75
2021/12/18 14:47:58;;;;;;;7.10;2.00;;;;;;;;;;5092968;28;20043;-75
2021/12/18 14:50:28;;;;;;;7.97;2.20;;;;;;;;;;5109335;28;20509;-74
2021/12/18 14:52:54;;;;;;;6.93;1.90;;;;;;;;;;5092797;28;20547;-74
2021/12/18 14:55:35;;;;;;;6.20;2.15;;;;;;;;;;5092421;28;20044;-74
2021/12/18 14:58:19;;;;;;;6.20;2.45;;;;;;;;;;5083150;28;20044;-75
2021/12/18 15:00:47;;;;;;;9.45;3.17;;;;;;;;;;5089217;28;20044;-74
2021/12/18 15:03:13;;;;;;;7.30;2.42;;;;;;;;;;5089013;28;20515;-74
2021/12/18 15:05:52;;;;;;;5.78;1.98;;;;;;;;;;5072780;28;20043;-74
2021/12/18 15:08:35;;;;;;;7.70;2.33;;;;;;;;;;5089741;28;20040;-75
2021/12/18 15:11:14;;;;;;;4.38;1.90;;;;;;;;;;5073473;28;20131;-74
2021/12/18 15:13:41;;;;;;;5.35;2.20;;;;;;;;;;5088978;28;20528;-74
2021/12/18 15:16:20;;;;;;;6.13;2.50;;;;;;;;;;5071397;28;20400;-74
2021/12/18 15:18:47;;;;;;;7.38;2.20;;;;;;;;;;5072308;28;20039;-74
2021/12/18 15:21:14;;;;;;;5.05;2.65;;;;;;;;;;5088897;28;20559;-75
2021/12/18 15:23:41;;;;;;;5.13;1.63;;;;;;;;;;5088744;28;20408;-74
2021/12/18 15:26:07;;;;;;;9.90;2.15;;;;;;;;;;5071242;28;20051;-75